sensor_id;sensor_type;location;lat;lon;timestamp;P1;durP1;ratioP1;P2;durP2;ratioP2
51907;SDS011;39320;53.214;6.556;2022-12-18T00:01:36;19.48;;;16.75;;
51907;SDS011;39320;53.214;6.556;2022-12-18T00:04:06;18.27;;;15.40;;
51907;SDS011;39320;53.214;6.556;2022-12-18T00:06:37;19.25;;;16.35;;
51907;SDS011;39320;53.214;6.556;2022-12-18T00:09:03;16.65;;;14.93;;
51907;SDS011;39320;53.214;6.556;2022-12-18T00:11:29;18.25;;;15.75;;
51907;SDS011;39320;53.214;6.556;2022-12-18T00:13:56;17.58;;;15.45;;
51907;SDS011;39320;53.214;6.556;2022-12-18T00:16:24;18.17;;;16.23;;
51907;SDS011;39320;53.214;6.556;2022-12-18T00:18:52;19.05;;;17.17;;
51907;SDS011;39320;53.214;6.556;2022-12-18T00:21:19;17.15;;;15.45;;
51907;SDS011;39320;53.214;6.556;2022-12-18T00:23:46;18.58;;;15.85;;
51907;SDS011;39320;53.214;6.556;2022-12-18T00:26:14;16.15;;;14.25;;
51907;SDS011;39320;53.214;6.556;2022-12-18T00:28:42;17.30;;;14.13;;
51907;SDS011;39320;53.214;6.556;2022-12-18T00:31:12;17.08;;;14.90;;
51907;SDS011;39320;53.214;6.556;2022-12-18T00:33:41;16.80;;;13.98;;
51907;SDS011;39320;53.214;6.556;2022-12-18T00:36:09;14.98;;;13.23;;
51907;SDS011;39320;53.214;6.556;2022-12-18T00:38:37;15.20;;;13.60;;
51907;SDS011;39320;53.214;6.556;2022-12-18T00:41:03;13.93;;;12.43;;
51907;SDS011;39320;53.214;6.556;2022-12-18T00:43:29;14.80;;;13.30;;
51907;SDS011;39320;53.214;6.556;2022-12-18T00:45:55;16.35;;;13.30;;
51907;SDS011;39320;53.214;6.556;2022-12-18T00:48:21;13.93;;;12.52;;
51907;SDS011;39320;53.214;6.556;2022-12-18T00:50:47;16.52;;;14.98;;
51907;SDS011;39320;53.214;6.556;2022-12-18T00:53:14;17.63;;;15.10;;
51907;SDS011;39320;53.214;6.556;2022-12-18T00:55:40;15.93;;;14.32;;
51907;SDS011;39320;53.214;6.556;2022-12-18T00:58:06;16.35;;;14.70;;
51907;SDS011;39320;53.214;6.556;2022-12-18T01:00:32;13.98;;;12.57;;
51907;SDS011;39320;53.214;6.556;2022-12-18T01:02:58;15.93;;;14.23;;
51907;SDS011;39320;53.214;6.556;2022-12-18T01:05:24;16.60;;;14.15;;
51907;SDS011;39320;53.214;6.556;2022-12-18T01:07:49;14.82;;;13.43;;
51907;SDS011;39320;53.214;6.556;2022-12-18T01:10:15;13.57;;;12.10;;
51907;SDS011;39320;53.214;6.556;2022-12-18T01:12:41;15.52;;;13.82;;
51907;SDS011;39320;53.214;6.556;2022-12-18T01:15:07;15.20;;;13.70;;
51907;SDS011;39320;53.214;6.556;2022-12-18T01:17:34;14.70;;;13.15;;
51907;SDS011;39320;53.214;6.556;2022-12-18T01:19:59;16.73;;;14.93;;
51907;SDS011;39320;53.214;6.556;2022-12-18T01:22:25;14.43;;;12.60;;
51907;SDS011;39320;53.214;6.556;2022-12-18T01:24:51;17.80;;;16.00;;
51907;SDS011;39320;53.214;6.556;2022-12-18T01:27:17;13.80;;;12.20;;
51907;SDS011;39320;53.214;6.556;2022-12-18T01:29:43;14.02;;;12.57;;
51907;SDS011;39320;53.214;6.556;2022-12-18T01:32:08;16.33;;;14.57;;
51907;SDS011;39320;53.214;6.556;2022-12-18T01:34:37;15.73;;;14.23;;
51907;SDS011;39320;53.214;6.556;2022-12-18T01:37:06;16.58;;;13.82;;
51907;SDS011;39320;53.214;6.556;2022-12-18T01:39:32;16.23;;;13.55;;
51907;SDS011;39320;53.214;6.556;2022-12-18T01:42:09;17.15;;;14.50;;
51907;SDS011;39320;53.214;6.556;2022-12-18T01:47:26;14.77;;;13.02;;
51907;SDS011;39320;53.214;6.556;2022-12-18T01:49:59;15.25;;;13.85;;
51907;SDS011;39320;53.214;6.556;2022-12-18T01:52:37;15.48;;;13.88;;
51907;SDS011;39320;53.214;6.556;2022-12-18T01:55:05;14.18;;;11.90;;
51907;SDS011;39320;53.214;6.556;2022-12-18T01:57:33;14.77;;;13.20;;
51907;SDS011;39320;53.214;6.556;2022-12-18T02:00:00;14.77;;;13.18;;
51907;SDS011;39320;53.214;6.556;2022-12-18T02:02:29;15.45;;;13.82;;
51907;SDS011;39320;53.214;6.556;2022-12-18T02:04:55;14.23;;;12.25;;
51907;SDS011;39320;53.214;6.556;2022-12-18T02:07:24;14.70;;;13.30;;
51907;SDS011;39320;53.214;6.556;2022-12-18T02:10:06;14.98;;;13.65;;
51907;SDS011;39320;53.214;6.556;2022-12-18T02:12:52;13.77;;;12.45;;
51907;SDS011;39320;53.214;6.556;2022-12-18T02:18:11;15.32;;;13.60;;
51907;SDS011;39320;53.214;6.556;2022-12-18T02:21:32;15.50;;;13.95;;
51907;SDS011;39320;53.214;6.556;2022-12-18T02:27:08;14.88;;;13.38;;
51907;SDS011;39320;53.214;6.556;2022-12-18T02:29:40;15.27;;;13.23;;
51907;SDS011;39320;53.214;6.556;2022-12-18T02:32:13;16.00;;;13.48;;
51907;SDS011;39320;53.214;6.556;2022-12-18T02:34:42;16.58;;;14.45;;
51907;SDS011;39320;53.214;6.556;2022-12-18T02:37:10;14.45;;;13.05;;
51907;SDS011;39320;53.214;6.556;2022-12-18T02:39:40;14.68;;;13.18;;
51907;SDS011;39320;53.214;6.556;2022-12-18T02:42:08;14.63;;;13.13;;
51907;SDS011;39320;53.214;6.556;2022-12-18T02:44:35;17.38;;;13.00;;
51907;SDS011;39320;53.214;6.556;2022-12-18T02:47:10;15.10;;;13.68;;
51907;SDS011;39320;53.214;6.556;2022-12-18T02:57:42;15.98;;;14.48;;
51907;SDS011;39320;53.214;6.556;2022-12-18T03:00:23;15.70;;;14.20;;
51907;SDS011;39320;53.214;6.556;2022-12-18T03:02:56;15.95;;;14.23;;
51907;SDS011;39320;53.214;6.556;2022-12-18T03:05:29;15.27;;;13.68;;
51907;SDS011;39320;53.214;6.556;2022-12-18T03:07:59;14.85;;;13.35;;
51907;SDS011;39320;53.214;6.556;2022-12-18T03:10:45;14.15;;;12.68;;
51907;SDS011;39320;53.214;6.556;2022-12-18T03:13:33;14.48;;;13.10;;
51907;SDS011;39320;53.214;6.556;2022-12-18T03:16:25;14.52;;;12.82;;
51907;SDS011;39320;53.214;6.556;2022-12-18T03:19:09;15.52;;;13.93;;
51907;SDS011;39320;53.214;6.556;2022-12-18T03:21:42;14.65;;;13.13;;
51907;SDS011;39320;53.214;6.556;2022-12-18T03:24:11;15.98;;;13.52;;
51907;SDS011;39320;53.214;6.556;2022-12-18T03:26:37;16.15;;;14.45;;
51907;SDS011;39320;53.214;6.556;2022-12-18T03:29:07;14.88;;;13.40;;
51907;SDS011;39320;53.214;6.556;2022-12-18T03:31:37;17.13;;;15.25;;
51907;SDS011;39320;53.214;6.556;2022-12-18T03:34:12;16.55;;;14.90;;
51907;SDS011;39320;53.214;6.556;2022-12-18T03:36:44;16.15;;;13.20;;
51907;SDS011;39320;53.214;6.556;2022-12-18T03:39:10;17.77;;;15.95;;
51907;SDS011;39320;53.214;6.556;2022-12-18T03:44:43;17.98;;;14.75;;
51907;SDS011;39320;53.214;6.556;2022-12-18T03:47:36;16.15;;;14.05;;
51907;SDS011;39320;53.214;6.556;2022-12-18T03:55:56;17.40;;;15.52;;
51907;SDS011;39320;53.214;6.556;2022-12-18T03:58:25;13.98;;;12.68;;
51907;SDS011;39320;53.214;6.556;2022-12-18T04:00:53;15.75;;;14.23;;
51907;SDS011;39320;53.214;6.556;2022-12-18T04:03:21;16.65;;;14.88;;
51907;SDS011;39320;53.214;6.556;2022-12-18T04:05:49;14.32;;;12.82;;
51907;SDS011;39320;53.214;6.556;2022-12-18T04:08:16;16.65;;;13.93;;
51907;SDS011;39320;53.214;6.556;2022-12-18T04:10:43;13.88;;;12.48;;
51907;SDS011;39320;53.214;6.556;2022-12-18T04:13:09;15.48;;;13.98;;
51907;SDS011;39320;53.214;6.556;2022-12-18T04:15:35;16.40;;;14.35;;
51907;SDS011;39320;53.214;6.556;2022-12-18T04:18:02;15.25;;;13.70;;
51907;SDS011;39320;53.214;6.556;2022-12-18T04:20:28;15.32;;;13.68;;
51907;SDS011;39320;53.214;6.556;2022-12-18T04:22:54;14.68;;;13.23;;
51907;SDS011;39320;53.214;6.556;2022-12-18T04:25:20;14.85;;;13.30;;
51907;SDS011;39320;53.214;6.556;2022-12-18T04:27:45;13.95;;;12.63;;
51907;SDS011;39320;53.214;6.556;2022-12-18T04:30:11;15.60;;;14.00;;
51907;SDS011;39320;53.214;6.556;2022-12-18T04:32:37;14.75;;;13.25;;
51907;SDS011;39320;53.214;6.556;2022-12-18T04:35:03;15.07;;;13.27;;
51907;SDS011;39320;53.214;6.556;2022-12-18T04:37:31;14.77;;;13.20;;
51907;SDS011;39320;53.214;6.556;2022-12-18T04:39:57;14.18;;;12.60;;
51907;SDS011;39320;53.214;6.556;2022-12-18T04:42:23;15.60;;;12.93;;
51907;SDS011;39320;53.214;6.556;2022-12-18T04:44:48;14.30;;;12.93;;
51907;SDS011;39320;53.214;6.556;2022-12-18T04:47:14;14.68;;;13.27;;
51907;SDS011;39320;53.214;6.556;2022-12-18T04:49:40;14.05;;;12.75;;
51907;SDS011;39320;53.214;6.556;2022-12-18T04:52:06;16.15;;;14.63;;
51907;SDS011;39320;53.214;6.556;2022-12-18T04:54:31;15.20;;;13.75;;
51907;SDS011;39320;53.214;6.556;2022-12-18T04:56:57;14.60;;;12.70;;
51907;SDS011;39320;53.214;6.556;2022-12-18T04:59:23;14.88;;;13.48;;
51907;SDS011;39320;53.214;6.556;2022-12-18T05:01:48;14.10;;;12.70;;
51907;SDS011;39320;53.214;6.556;2022-12-18T05:04:14;14.27;;;12.80;;
51907;SDS011;39320;53.214;6.556;2022-12-18T05:06:40;12.98;;;11.75;;
51907;SDS011;39320;53.214;6.556;2022-12-18T05:09:06;14.15;;;12.95;;
51907;SDS011;39320;53.214;6.556;2022-12-18T05:11:31;14.68;;;13.10;;
51907;SDS011;39320;53.214;6.556;2022-12-18T05:13:57;15.15;;;13.73;;
51907;SDS011;39320;53.214;6.556;2022-12-18T05:16:23;16.63;;;14.77;;
51907;SDS011;39320;53.214;6.556;2022-12-18T05:18:48;14.68;;;13.30;;
51907;SDS011;39320;53.214;6.556;2022-12-18T05:21:14;13.77;;;12.23;;
51907;SDS011;39320;53.214;6.556;2022-12-18T05:23:40;13.55;;;12.25;;
51907;SDS011;39320;53.214;6.556;2022-12-18T05:26:06;14.23;;;12.70;;
51907;SDS011;39320;53.214;6.556;2022-12-18T05:28:33;14.13;;;12.73;;
51907;SDS011;39320;53.214;6.556;2022-12-18T05:31:00;14.23;;;12.80;;
51907;SDS011;39320;53.214;6.556;2022-12-18T05:33:29;14.65;;;13.15;;
51907;SDS011;39320;53.214;6.556;2022-12-18T05:35:58;14.32;;;12.93;;
51907;SDS011;39320;53.214;6.556;2022-12-18T05:38:25;13.23;;;11.98;;
51907;SDS011;39320;53.214;6.556;2022-12-18T05:40:52;13.38;;;11.82;;
51907;SDS011;39320;53.214;6.556;2022-12-18T05:43:19;13.48;;;12.05;;
51907;SDS011;39320;53.214;6.556;2022-12-18T05:45:47;13.13;;;11.82;;
51907;SDS011;39320;53.214;6.556;2022-12-18T05:48:13;13.43;;;12.13;;
51907;SDS011;39320;53.214;6.556;2022-12-18T05:50:40;12.60;;;11.35;;
51907;SDS011;39320;53.214;6.556;2022-12-18T05:53:07;14.45;;;12.38;;
51907;SDS011;39320;53.214;6.556;2022-12-18T05:55:36;12.90;;;11.60;;
51907;SDS011;39320;53.214;6.556;2022-12-18T05:58:04;12.27;;;11.07;;
51907;SDS011;39320;53.214;6.556;2022-12-18T06:00:32;11.43;;;10.43;;
51907;SDS011;39320;53.214;6.556;2022-12-18T06:03:00;13.32;;;11.88;;
51907;SDS011;39320;53.214;6.556;2022-12-18T06:05:26;13.63;;;12.27;;
51907;SDS011;39320;53.214;6.556;2022-12-18T06:07:52;13.23;;;11.88;;
51907;SDS011;39320;53.214;6.556;2022-12-18T06:10:18;12.13;;;10.52;;
51907;SDS011;39320;53.214;6.556;2022-12-18T06:12:44;13.30;;;12.02;;
51907;SDS011;39320;53.214;6.556;2022-12-18T06:15:10;11.95;;;10.75;;
51907;SDS011;39320;53.214;6.556;2022-12-18T06:17:36;11.82;;;10.68;;
51907;SDS011;39320;53.214;6.556;2022-12-18T06:20:02;12.90;;;11.57;;
51907;SDS011;39320;53.214;6.556;2022-12-18T06:22:32;14.18;;;12.88;;
51907;SDS011;39320;53.214;6.556;2022-12-18T06:24:58;11.70;;;10.60;;
51907;SDS011;39320;53.214;6.556;2022-12-18T06:27:24;11.43;;;10.38;;
51907;SDS011;39320;53.214;6.556;2022-12-18T06:29:50;11.52;;;10.27;;
51907;SDS011;39320;53.214;6.556;2022-12-18T06:32:16;11.65;;;10.57;;
51907;SDS011;39320;53.214;6.556;2022-12-18T06:34:41;12.27;;;11.07;;
51907;SDS011;39320;53.214;6.556;2022-12-18T06:37:07;12.55;;;11.45;;
51907;SDS011;39320;53.214;6.556;2022-12-18T06:39:33;11.02;;;9.93;;
51907;SDS011;39320;53.214;6.556;2022-12-18T06:41:58;11.63;;;10.48;;
51907;SDS011;39320;53.214;6.556;2022-12-18T06:44:24;11.43;;;10.20;;
51907;SDS011;39320;53.214;6.556;2022-12-18T06:46:50;11.55;;;10.60;;
51907;SDS011;39320;53.214;6.556;2022-12-18T06:49:16;10.88;;;9.95;;
51907;SDS011;39320;53.214;6.556;2022-12-18T06:51:42;11.48;;;10.32;;
51907;SDS011;39320;53.214;6.556;2022-12-18T06:54:08;11.32;;;10.35;;
51907;SDS011;39320;53.214;6.556;2022-12-18T06:56:33;12.20;;;10.95;;
51907;SDS011;39320;53.214;6.556;2022-12-18T06:59:00;12.43;;;10.40;;
51907;SDS011;39320;53.214;6.556;2022-12-18T07:01:26;11.38;;;10.20;;
51907;SDS011;39320;53.214;6.556;2022-12-18T07:03:52;9.98;;;9.18;;
51907;SDS011;39320;53.214;6.556;2022-12-18T07:06:20;10.05;;;9.07;;
51907;SDS011;39320;53.214;6.556;2022-12-18T07:08:47;10.73;;;9.68;;
51907;SDS011;39320;53.214;6.556;2022-12-18T07:11:14;10.57;;;9.52;;
51907;SDS011;39320;53.214;6.556;2022-12-18T07:13:41;10.35;;;9.35;;
51907;SDS011;39320;53.214;6.556;2022-12-18T07:16:17;9.63;;;8.80;;
51907;SDS011;39320;53.214;6.556;2022-12-18T07:18:44;10.43;;;9.40;;
51907;SDS011;39320;53.214;6.556;2022-12-18T07:21:11;9.23;;;8.45;;
51907;SDS011;39320;53.214;6.556;2022-12-18T07:23:42;8.93;;;8.13;;
51907;SDS011;39320;53.214;6.556;2022-12-18T07:26:10;10.52;;;9.57;;
51907;SDS011;39320;53.214;6.556;2022-12-18T07:28:38;9.27;;;8.32;;
51907;SDS011;39320;53.214;6.556;2022-12-18T07:31:09;10.18;;;9.18;;
51907;SDS011;39320;53.214;6.556;2022-12-18T07:33:36;10.25;;;9.35;;
51907;SDS011;39320;53.214;6.556;2022-12-18T07:36:03;10.25;;;9.23;;
51907;SDS011;39320;53.214;6.556;2022-12-18T07:38:30;9.57;;;8.77;;
51907;SDS011;39320;53.214;6.556;2022-12-18T07:41:00;9.82;;;8.93;;
51907;SDS011;39320;53.214;6.556;2022-12-18T07:43:26;8.52;;;7.72;;
51907;SDS011;39320;53.214;6.556;2022-12-18T07:45:52;9.88;;;9.00;;
51907;SDS011;39320;53.214;6.556;2022-12-18T07:48:18;8.80;;;8.05;;
51907;SDS011;39320;53.214;6.556;2022-12-18T07:50:43;9.20;;;8.35;;
51907;SDS011;39320;53.214;6.556;2022-12-18T07:53:09;9.35;;;8.45;;
51907;SDS011;39320;53.214;6.556;2022-12-18T07:55:35;9.23;;;8.43;;
51907;SDS011;39320;53.214;6.556;2022-12-18T07:58:01;8.48;;;7.75;;
51907;SDS011;39320;53.214;6.556;2022-12-18T08:00:28;9.73;;;8.88;;
51907;SDS011;39320;53.214;6.556;2022-12-18T08:02:54;8.40;;;7.60;;
51907;SDS011;39320;53.214;6.556;2022-12-18T08:05:20;8.18;;;7.40;;
51907;SDS011;39320;53.214;6.556;2022-12-18T08:07:46;8.80;;;8.00;;
51907;SDS011;39320;53.214;6.556;2022-12-18T08:10:11;9.13;;;8.32;;
51907;SDS011;39320;53.214;6.556;2022-12-18T08:12:37;8.15;;;7.45;;
51907;SDS011;39320;53.214;6.556;2022-12-18T08:15:03;8.50;;;7.70;;
51907;SDS011;39320;53.214;6.556;2022-12-18T08:17:29;8.85;;;8.05;;
51907;SDS011;39320;53.214;6.556;2022-12-18T08:19:55;8.57;;;7.78;;
51907;SDS011;39320;53.214;6.556;2022-12-18T08:22:21;8.50;;;7.72;;
51907;SDS011;39320;53.214;6.556;2022-12-18T08:24:46;8.43;;;7.72;;
51907;SDS011;39320;53.214;6.556;2022-12-18T08:27:12;7.43;;;6.82;;
51907;SDS011;39320;53.214;6.556;2022-12-18T08:29:38;8.23;;;7.53;;
51907;SDS011;39320;53.214;6.556;2022-12-18T08:32:04;7.28;;;6.75;;
51907;SDS011;39320;53.214;6.556;2022-12-18T08:34:30;8.43;;;7.65;;
51907;SDS011;39320;53.214;6.556;2022-12-18T08:36:55;6.95;;;6.38;;
51907;SDS011;39320;53.214;6.556;2022-12-18T08:39:21;7.93;;;7.22;;
51907;SDS011;39320;53.214;6.556;2022-12-18T08:41:47;7.55;;;6.82;;
51907;SDS011;39320;53.214;6.556;2022-12-18T08:44:32;8.20;;;7.50;;
51907;SDS011;39320;53.214;6.556;2022-12-18T08:47:07;8.45;;;7.75;;
51907;SDS011;39320;53.214;6.556;2022-12-18T08:49:33;7.63;;;7.03;;
51907;SDS011;39320;53.214;6.556;2022-12-18T08:52:00;8.75;;;7.97;;
51907;SDS011;39320;53.214;6.556;2022-12-18T08:54:26;8.70;;;7.90;;
51907;SDS011;39320;53.214;6.556;2022-12-18T08:56:52;8.13;;;7.47;;
51907;SDS011;39320;53.214;6.556;2022-12-18T08:59:18;8.10;;;7.40;;
51907;SDS011;39320;53.214;6.556;2022-12-18T09:01:45;8.18;;;7.38;;
51907;SDS011;39320;53.214;6.556;2022-12-18T09:04:11;8.43;;;7.72;;
51907;SDS011;39320;53.214;6.556;2022-12-18T09:06:39;7.82;;;7.22;;
51907;SDS011;39320;53.214;6.556;2022-12-18T09:09:05;8.05;;;7.45;;
51907;SDS011;39320;53.214;6.556;2022-12-18T09:11:31;8.35;;;7.68;;
51907;SDS011;39320;53.214;6.556;2022-12-18T09:13:59;7.75;;;7.00;;
51907;SDS011;39320;53.214;6.556;2022-12-18T09:16:25;8.35;;;7.60;;
51907;SDS011;39320;53.214;6.556;2022-12-18T09:18:53;8.02;;;7.35;;
51907;SDS011;39320;53.214;6.556;2022-12-18T09:21:24;7.70;;;7.03;;
51907;SDS011;39320;53.214;6.556;2022-12-18T09:23:51;8.35;;;7.65;;
51907;SDS011;39320;53.214;6.556;2022-12-18T09:26:18;8.63;;;7.90;;
51907;SDS011;39320;53.214;6.556;2022-12-18T09:28:45;8.40;;;7.70;;
51907;SDS011;39320;53.214;6.556;2022-12-18T09:31:11;9.07;;;8.30;;
51907;SDS011;39320;53.214;6.556;2022-12-18T09:33:39;8.48;;;7.80;;
51907;SDS011;39320;53.214;6.556;2022-12-18T09:36:06;8.25;;;7.55;;
51907;SDS011;39320;53.214;6.556;2022-12-18T09:38:33;8.07;;;7.38;;
51907;SDS011;39320;53.214;6.556;2022-12-18T09:41:00;8.27;;;7.47;;
51907;SDS011;39320;53.214;6.556;2022-12-18T09:43:51;8.77;;;8.07;;
51907;SDS011;39320;53.214;6.556;2022-12-18T09:46:25;7.30;;;6.60;;
51907;SDS011;39320;53.214;6.556;2022-12-18T09:48:55;8.35;;;7.75;;
51907;SDS011;39320;53.214;6.556;2022-12-18T09:51:36;6.72;;;6.22;;
51907;SDS011;39320;53.214;6.556;2022-12-18T09:54:30;6.93;;;6.38;;
51907;SDS011;39320;53.214;6.556;2022-12-18T09:57:00;7.57;;;6.95;;
51907;SDS011;39320;53.214;6.556;2022-12-18T09:59:29;7.75;;;7.15;;
51907;SDS011;39320;53.214;6.556;2022-12-18T10:02:11;7.45;;;6.68;;
51907;SDS011;39320;53.214;6.556;2022-12-18T10:04:43;7.05;;;6.45;;
51907;SDS011;39320;53.214;6.556;2022-12-18T10:07:16;7.72;;;6.93;;
51907;SDS011;39320;53.214;6.556;2022-12-18T10:09:57;6.60;;;6.10;;
51907;SDS011;39320;53.214;6.556;2022-12-18T10:12:59;7.18;;;6.57;;
51907;SDS011;39320;53.214;6.556;2022-12-18T10:21:10;7.72;;;7.03;;
51907;SDS011;39320;53.214;6.556;2022-12-18T10:23:44;6.22;;;5.68;;
51907;SDS011;39320;53.214;6.556;2022-12-18T10:26:23;5.82;;;5.32;;
51907;SDS011;39320;53.214;6.556;2022-12-18T10:28:50;6.57;;;5.97;;
51907;SDS011;39320;53.214;6.556;2022-12-18T10:31:18;5.97;;;5.47;;
51907;SDS011;39320;53.214;6.556;2022-12-18T10:33:47;5.97;;;5.47;;
51907;SDS011;39320;53.214;6.556;2022-12-18T10:36:13;6.93;;;6.43;;
51907;SDS011;39320;53.214;6.556;2022-12-18T10:38:39;6.47;;;5.97;;
51907;SDS011;39320;53.214;6.556;2022-12-18T10:43:48;6.05;;;5.63;;
51907;SDS011;39320;53.214;6.556;2022-12-18T10:51:29;5.85;;;5.38;;
51907;SDS011;39320;53.214;6.556;2022-12-18T10:56:27;5.28;;;4.97;;
51907;SDS011;39320;53.214;6.556;2022-12-18T10:58:58;5.97;;;5.47;;
51907;SDS011;39320;53.214;6.556;2022-12-18T11:01:31;5.82;;;5.40;;
51907;SDS011;39320;53.214;6.556;2022-12-18T11:04:22;4.95;;;4.65;;
51907;SDS011;39320;53.214;6.556;2022-12-18T11:09:36;5.20;;;4.80;;
51907;SDS011;39320;53.214;6.556;2022-12-18T11:12:21;5.45;;;5.05;;
51907;SDS011;39320;53.214;6.556;2022-12-18T11:14:52;5.07;;;4.75;;
51907;SDS011;39320;53.214;6.556;2022-12-18T11:20:19;5.53;;;5.13;;
51907;SDS011;39320;53.214;6.556;2022-12-18T11:23:20;4.82;;;4.30;;
51907;SDS011;39320;53.214;6.556;2022-12-18T11:25:56;4.60;;;4.30;;
51907;SDS011;39320;53.214;6.556;2022-12-18T11:28:37;4.28;;;3.97;;
51907;SDS011;39320;53.214;6.556;2022-12-18T11:33:53;4.80;;;4.50;;
51907;SDS011;39320;53.214;6.556;2022-12-18T11:36:41;4.20;;;3.90;;
51907;SDS011;39320;53.214;6.556;2022-12-18T11:39:12;5.38;;;4.38;;
51907;SDS011;39320;53.214;6.556;2022-12-18T11:42:18;4.93;;;4.53;;
51907;SDS011;39320;53.214;6.556;2022-12-18T11:47:29;4.68;;;4.30;;
51907;SDS011;39320;53.214;6.556;2022-12-18T11:50:03;4.35;;;3.95;;
51907;SDS011;39320;53.214;6.556;2022-12-18T11:52:39;4.38;;;4.07;;
51907;SDS011;39320;53.214;6.556;2022-12-18T12:03:47;3.97;;;3.58;;
51907;SDS011;39320;53.214;6.556;2022-12-18T12:17:06;4.05;;;3.75;;
51907;SDS011;39320;53.214;6.556;2022-12-18T12:19:45;4.35;;;4.05;;
51907;SDS011;39320;53.214;6.556;2022-12-18T12:25:08;4.07;;;3.77;;
51907;SDS011;39320;53.214;6.556;2022-12-18T12:30:26;5.03;;;4.72;;
51907;SDS011;39320;53.214;6.556;2022-12-18T12:38:30;4.50;;;4.20;;
51907;SDS011;39320;53.214;6.556;2022-12-18T12:41:04;5.40;;;4.20;;
51907;SDS011;39320;53.214;6.556;2022-12-18T12:43:53;4.00;;;3.70;;
51907;SDS011;39320;53.214;6.556;2022-12-18T12:46:22;3.95;;;3.65;;
51907;SDS011;39320;53.214;6.556;2022-12-18T12:48:50;3.83;;;3.53;;
51907;SDS011;39320;53.214;6.556;2022-12-18T12:51:31;3.58;;;3.28;;
51907;SDS011;39320;53.214;6.556;2022-12-18T12:54:00;3.97;;;3.67;;
51907;SDS011;39320;53.214;6.556;2022-12-18T12:56:37;3.50;;;3.30;;
51907;SDS011;39320;53.214;6.556;2022-12-18T12:59:27;3.78;;;3.47;;
51907;SDS011;39320;53.214;6.556;2022-12-18T13:02:18;3.95;;;3.58;;
51907;SDS011;39320;53.214;6.556;2022-12-18T13:07:24;4.30;;;3.90;;
51907;SDS011;39320;53.214;6.556;2022-12-18T13:12:54;3.80;;;3.60;;
51907;SDS011;39320;53.214;6.556;2022-12-18T13:15:27;3.70;;;3.40;;
51907;SDS011;39320;53.214;6.556;2022-12-18T13:18:29;3.78;;;3.47;;
51907;SDS011;39320;53.214;6.556;2022-12-18T13:21:32;3.88;;;3.58;;
51907;SDS011;39320;53.214;6.556;2022-12-18T13:23:49;4.05;;;3.75;;
51907;SDS011;39320;53.214;6.556;2022-12-18T13:31:13;3.83;;;3.63;;
51907;SDS011;39320;53.214;6.556;2022-12-18T13:33:42;3.42;;;3.22;;
51907;SDS011;39320;53.214;6.556;2022-12-18T13:36:13;3.38;;;3.17;;
51907;SDS011;39320;53.214;6.556;2022-12-18T13:38:40;3.65;;;3.42;;
51907;SDS011;39320;53.214;6.556;2022-12-18T13:41:21;4.03;;;3.72;;
51907;SDS011;39320;53.214;6.556;2022-12-18T13:43:53;3.85;;;3.55;;
51907;SDS011;39320;53.214;6.556;2022-12-18T13:46:47;4.15;;;3.85;;
51907;SDS011;39320;53.214;6.556;2022-12-18T13:49:23;3.72;;;3.42;;
51907;SDS011;39320;53.214;6.556;2022-12-18T13:52:03;3.42;;;3.20;;
51907;SDS011;39320;53.214;6.556;2022-12-18T13:54:47;3.72;;;3.42;;
51907;SDS011;39320;53.214;6.556;2022-12-18T13:57:26;4.15;;;3.67;;
51907;SDS011;39320;53.214;6.556;2022-12-18T13:59:57;4.13;;;3.80;;
51907;SDS011;39320;53.214;6.556;2022-12-18T14:02:37;4.05;;;3.75;;
51907;SDS011;39320;53.214;6.556;2022-12-18T14:05:03;3.97;;;3.75;;
51907;SDS011;39320;53.214;6.556;2022-12-18T14:07:29;3.90;;;3.60;;
51907;SDS011;39320;53.214;6.556;2022-12-18T14:09:57;3.50;;;3.30;;
51907;SDS011;39320;53.214;6.556;2022-12-18T14:12:32;3.45;;;3.25;;
51907;SDS011;39320;53.214;6.556;2022-12-18T14:20:26;4.43;;;4.03;;
51907;SDS011;39320;53.214;6.556;2022-12-18T14:22:54;4.00;;;3.70;;
51907;SDS011;39320;53.214;6.556;2022-12-18T14:30:30;5.30;;;4.90;;
51907;SDS011;39320;53.214;6.556;2022-12-18T14:36:00;4.55;;;4.15;;
51907;SDS011;39320;53.214;6.556;2022-12-18T14:40:58;4.63;;;4.25;;
51907;SDS011;39320;53.214;6.556;2022-12-18T14:43:25;5.32;;;4.82;;
51907;SDS011;39320;53.214;6.556;2022-12-18T14:45:53;4.55;;;4.15;;
51907;SDS011;39320;53.214;6.556;2022-12-18T14:48:25;4.22;;;3.88;;
51907;SDS011;39320;53.214;6.556;2022-12-18T14:53:36;5.00;;;4.60;;
51907;SDS011;39320;53.214;6.556;2022-12-18T14:56:17;3.92;;;3.63;;
51907;SDS011;39320;53.214;6.556;2022-12-18T14:58:47;4.13;;;3.83;;
51907;SDS011;39320;53.214;6.556;2022-12-18T15:01:58;4.60;;;4.20;;
51907;SDS011;39320;53.214;6.556;2022-12-18T15:04:27;4.30;;;3.97;;
51907;SDS011;39320;53.214;6.556;2022-12-18T15:09:32;4.47;;;4.18;;
51907;SDS011;39320;53.214;6.556;2022-12-18T15:11:58;4.63;;;4.22;;
51907;SDS011;39320;53.214;6.556;2022-12-18T15:14:41;4.40;;;4.00;;
51907;SDS011;39320;53.214;6.556;2022-12-18T15:17:22;4.68;;;4.28;;
51907;SDS011;39320;53.214;6.556;2022-12-18T15:19:53;4.30;;;4.00;;
51907;SDS011;39320;53.214;6.556;2022-12-18T15:22:33;4.43;;;4.07;;
51907;SDS011;39320;53.214;6.556;2022-12-18T15:25:00;4.23;;;3.83;;
51907;SDS011;39320;53.214;6.556;2022-12-18T15:27:31;4.50;;;4.20;;
51907;SDS011;39320;53.214;6.556;2022-12-18T15:32:35;4.07;;;3.77;;
51907;SDS011;39320;53.214;6.556;2022-12-18T15:35:16;4.50;;;4.10;;
51907;SDS011;39320;53.214;6.556;2022-12-18T15:37:50;4.28;;;3.97;;
51907;SDS011;39320;53.214;6.556;2022-12-18T15:40:18;4.43;;;4.13;;
51907;SDS011;39320;53.214;6.556;2022-12-18T15:42:45;3.97;;;3.67;;
51907;SDS011;39320;53.214;6.556;2022-12-18T15:45:30;5.18;;;4.78;;
51907;SDS011;39320;53.214;6.556;2022-12-18T15:47:57;5.28;;;4.88;;
51907;SDS011;39320;53.214;6.556;2022-12-18T15:50:23;4.50;;;4.20;;
51907;SDS011;39320;53.214;6.556;2022-12-18T15:52:49;5.10;;;4.70;;
51907;SDS011;39320;53.214;6.556;2022-12-18T15:55:20;4.90;;;4.50;;
51907;SDS011;39320;53.214;6.556;2022-12-18T15:58:06;4.78;;;4.38;;
51907;SDS011;39320;53.214;6.556;2022-12-18T16:00:33;4.57;;;4.18;;
51907;SDS011;39320;53.214;6.556;2022-12-18T16:03:01;4.65;;;4.25;;
51907;SDS011;39320;53.214;6.556;2022-12-18T16:05:28;5.32;;;4.93;;
51907;SDS011;39320;53.214;6.556;2022-12-18T16:07:54;5.80;;;5.30;;
51907;SDS011;39320;53.214;6.556;2022-12-18T16:10:19;5.20;;;4.80;;
51907;SDS011;39320;53.214;6.556;2022-12-18T16:12:45;5.97;;;5.47;;
51907;SDS011;39320;53.214;6.556;2022-12-18T16:15:14;4.88;;;4.47;;
51907;SDS011;39320;53.214;6.556;2022-12-18T16:17:41;4.97;;;4.60;;
51907;SDS011;39320;53.214;6.556;2022-12-18T16:20:15;4.93;;;4.45;;
51907;SDS011;39320;53.214;6.556;2022-12-18T16:22:43;4.93;;;4.57;;
51907;SDS011;39320;53.214;6.556;2022-12-18T16:25:24;4.28;;;3.97;;
51907;SDS011;39320;53.214;6.556;2022-12-18T16:27:51;4.93;;;4.53;;
51907;SDS011;39320;53.214;6.556;2022-12-18T16:30:25;6.45;;;5.93;;
51907;SDS011;39320;53.214;6.556;2022-12-18T16:32:56;4.18;;;3.88;;
51907;SDS011;39320;53.214;6.556;2022-12-18T16:35:23;5.70;;;5.20;;
51907;SDS011;39320;53.214;6.556;2022-12-18T16:37:49;4.85;;;4.45;;
51907;SDS011;39320;53.214;6.556;2022-12-18T16:40:16;5.28;;;4.78;;
51907;SDS011;39320;53.214;6.556;2022-12-18T16:42:42;4.90;;;4.57;;
51907;SDS011;39320;53.214;6.556;2022-12-18T16:45:11;5.38;;;4.97;;
51907;SDS011;39320;53.214;6.556;2022-12-18T16:47:39;5.30;;;4.78;;
51907;SDS011;39320;53.214;6.556;2022-12-18T16:50:05;4.72;;;4.43;;
51907;SDS011;39320;53.214;6.556;2022-12-18T16:52:32;4.72;;;4.35;;